Time;durP1;ratioP1;P1;durP2;ratioP2;P2;SDS_P1;SDS_P2;PMS_P1;PMS_P2;Temp;Humidity;BMP_temperature;BMP_pressure;BME280_temperature;BME280_humidity;BME280_pressure;Samples;Min_cycle;Max_cycle;Signal;HPM_P1;HPM_P2
2022/07/24 00:00:45;;;;;;;;;;;20.30;99.90;;;;;;4592664;19;19927;-34
2022/07/24 00:02:16;;;;;;;;;;;20.40;99.90;;;;;;4592268;19;19922;-34
2022/07/24 00:03:48;;;;;;;;;;;20.50;99.90;;;;;;4593484;19;20244;-33
2022/07/24 00:05:19;;;;;;;;;;;20.60;99.90;;;;;;4590486;19;19923;-33
2022/07/24 00:06:50;;;;;;;;;;;20.70;99.90;;;;;;4590816;19;19923;-33
2022/07/24 00:08:20;;;;;;;;;;;20.70;99.90;;;;;;4593123;19;19911;-32
2022/07/24 00:09:51;;;;;;;;;;;20.80;99.90;;;;;;4590928;19;19978;-33
2022/07/24 00:11:22;;;;;;;;;;;20.90;99.90;;;;;;4593387;19;19939;-34
2022/07/24 00:12:53;;;;;;;;;;;20.90;99.90;;;;;;4592501;19;19923;-33
2022/07/24 00:14:25;;;;;;;;;;;21.00;99.90;;;;;;4592885;19;19918;-32
2022/07/24 00:15:55;;;;;;;;;;;21.10;99.90;;;;;;4591568;19;19926;-35
2022/07/24 00:17:27;;;;;;;;;;;21.10;99.90;;;;;;4592248;19;19923;-33
2022/07/24 00:18:58;;;;;;;;;;;21.00;99.90;;;;;;4590484;19;20384;-33
2022/07/24 00:20:28;;;;;;;;;;;20.80;99.90;;;;;;4591567;19;19938;-33
2022/07/24 00:22:01;;;;;;;;;;;20.60;99.90;;;;;;4592859;19;19915;-33
2022/07/24 00:23:33;;;;;;;;;;;20.50;99.90;;;;;;4592465;19;19974;-33
2022/07/24 00:25:04;;;;;;;;;;;20.50;99.90;;;;;;4592872;19;19918;-32
2022/07/24 00:26:35;;;;;;;;;;;20.40;99.90;;;;;;4591884;19;19955;-33
2022/07/24 00:28:05;;;;;;;;;;;20.40;99.90;;;;;;4590278;19;19910;-34
2022/07/24 00:29:37;;;;;;;;;;;20.40;99.90;;;;;;4589562;19;19919;-32
2022/07/24 00:31:08;;;;;;;;;;;20.40;99.90;;;;;;4592126;19;19923;-33
2022/07/24 00:32:38;;;;;;;;;;;20.30;99.90;;;;;;4592070;19;19945;-33
2022/07/24 00:34:09;;;;;;;;;;;20.30;99.90;;;;;;4593814;19;19922;-34
2022/07/24 00:35:41;;;;;;;;;;;20.30;99.90;;;;;;4591545;19;19918;-33
2022/07/24 00:37:12;;;;;;;;;;;20.30;99.90;;;;;;4592397;19;20342;-32
2022/07/24 00:38:43;;;;;;;;;;;20.30;99.90;;;;;;4591349;19;19922;-33
2022/07/24 00:40:15;;;;;;;;;;;20.30;99.90;;;;;;4593283;19;19915;-33
2022/07/24 00:41:46;;;;;;;;;;;20.30;99.90;;;;;;4591749;19;19922;-33
2022/07/24 00:43:17;;;;;;;;;;;20.30;99.90;;;;;;4589826;19;19922;-33
2022/07/24 00:44:48;;;;;;;;;;;20.30;99.90;;;;;;4593230;19;19922;-34
2022/07/24 00:46:19;;;;;;;;;;;20.30;99.90;;;;;;4590825;19;19978;-33
2022/07/24 00:47:51;;;;;;;;;;;20.30;99.90;;;;;;4592440;19;19919;-33
2022/07/24 00:49:22;;;;;;;;;;;20.30;99.90;;;;;;4591118;19;20009;-33
2022/07/24 00:50:53;;;;;;;;;;;20.30;99.90;;;;;;4592722;19;20264;-34
2022/07/24 00:52:23;;;;;;;;;;;20.30;99.90;;;;;;4590180;19;19923;-33
2022/07/24 00:53:55;;;;;;;;;;;20.30;99.90;;;;;;4590315;19;19978;-33
2022/07/24 00:55:26;;;;;;;;;;;20.30;99.90;;;;;;4590830;19;19926;-33
2022/07/24 00:56:57;;;;;;;;;;;20.30;99.90;;;;;;4591692;19;19915;-32
2022/07/24 00:58:27;;;;;;;;;;;20.30;99.90;;;;;;4591618;19;19921;-33
2022/07/24 00:59:59;;;;;;;;;;;20.30;99.90;;;;;;4592131;19;19927;-33
2022/07/24 01:01:30;;;;;;;;;;;20.30;99.90;;;;;;4591518;19;19923;-33
2022/07/24 01:03:01;;;;;;;;;;;20.30;99.90;;;;;;4589824;19;19922;-33
2022/07/24 01:04:32;;;;;;;;;;;20.30;99.90;;;;;;4590400;19;19914;-33
2022/07/24 01:06:03;;;;;;;;;;;20.40;99.90;;;;;;4591402;19;19966;-34
2022/07/24 01:07:34;;;;;;;;;;;20.40;99.90;;;;;;4592301;19;19914;-33
2022/07/24 01:09:05;;;;;;;;;;;20.40;99.90;;;;;;4591299;19;20244;-33
2022/07/24 01:10:36;;;;;;;;;;;20.40;99.90;;;;;;4590507;19;19966;-33
2022/07/24 01:12:07;;;;;;;;;;;20.40;99.90;;;;;;4592726;19;19941;-34
2022/07/24 01:13:38;;;;;;;;;;;20.30;99.90;;;;;;4590209;19;20373;-34
2022/07/24 01:15:09;;;;;;;;;;;20.40;99.90;;;;;;4591672;19;19929;-32
2022/07/24 01:16:40;;;;;;;;;;;20.40;99.90;;;;;;4590280;19;20355;-32
2022/07/24 01:18:12;;;;;;;;;;;20.40;99.90;;;;;;4591713;19;19918;-33
2022/07/24 01:19:43;;;;;;;;;;;20.40;99.90;;;;;;4591155;19;19994;-32
2022/07/24 01:21:14;;;;;;;;;;;20.40;99.90;;;;;;4588910;19;19974;-32
2022/07/24 01:22:45;;;;;;;;;;;20.40;99.90;;;;;;4590791;19;19941;-33
2022/07/24 01:24:16;;;;;;;;;;;20.40;99.90;;;;;;4590694;19;19974;-32
2022/07/24 01:25:47;;;;;;;;;;;20.40;99.90;;;;;;4591115;19;20305;-33
2022/07/24 01:27:18;;;;;;;;;;;20.40;99.90;;;;;;4591548;19;19919;-34
2022/07/24 01:28:49;;;;;;;;;;;20.40;99.90;;;;;;4591858;19;19951;-33
2022/07/24 01:30:20;;;;;;;;;;;20.40;99.90;;;;;;4592083;19;20438;-33
2022/07/24 01:31:51;;;;;;;;;;;20.40;99.90;;;;;;4591040;19;19933;-33
2022/07/24 01:33:22;;;;;;;;;;;20.40;99.90;;;;;;4590091;19;19919;-33
2022/07/24 01:34:53;;;;;;;;;;;20.40;99.90;;;;;;4592131;19;19910;-33
2022/07/24 01:36:24;;;;;;;;;;;20.40;99.90;;;;;;4590525;19;19990;-33
2022/07/24 01:37:55;;;;;;;;;;;20.40;99.90;;;;;;4591089;19;20009;-33
2022/07/24 01:39:26;;;;;;;;;;;20.40;99.90;;;;;;4590164;19;19911;-32
2022/07/24 01:40:57;;;;;;;;;;;20.30;99.90;;;;;;4592269;19;19915;-33
2022/07/24 01:42:28;;;;;;;;;;;20.40;99.90;;;;;;4590606;19;19918;-34
2022/07/24 01:43:59;;;;;;;;;;;20.40;99.90;;;;;;4589676;19;20591;-33
2022/07/24 01:45:30;;;;;;;;;;;20.30;99.90;;;;;;4591536;19;19914;-33
2022/07/24 01:47:02;;;;;;;;;;;20.30;99.90;;;;;;4589793;19;19952;-33
2022/07/24 01:48:33;;;;;;;;;;;20.40;99.90;;;;;;4590822;19;20336;-34
2022/07/24 01:50:04;;;;;;;;;;;20.40;99.90;;;;;;4591062;19;19919;-34
2022/07/24 01:51:35;;;;;;;;;;;20.40;99.90;;;;;;4591576;19;20015;-32
2022/07/24 01:53:06;;;;;;;;;;;20.40;99.90;;;;;;4590504;19;20336;-33
2022/07/24 01:54:37;;;;;;;;;;;20.40;99.90;;;;;;4589811;19;19918;-34
2022/07/24 01:56:08;;;;;;;;;;;20.40;99.90;;;;;;4591748;19;19925;-34
2022/07/24 01:57:39;;;;;;;;;;;20.40;99.90;;;;;;4590725;19;19990;-33
2022/07/24 01:59:10;;;;;;;;;;;20.40;99.90;;;;;;4589870;19;19930;-34
2022/07/24 02:00:41;;;;;;;;;;;20.40;99.90;;;;;;4590994;19;19922;-34
2022/07/24 02:02:12;;;;;;;;;;;20.40;99.90;;;;;;4591314;19;19930;-34
2022/07/24 02:03:43;;;;;;;;;;;20.40;99.90;;;;;;4590514;19;19921;-34
2022/07/24 02:05:14;;;;;;;;;;;20.40;99.90;;;;;;4589440;19;19978;-34
2022/07/24 02:06:46;;;;;;;;;;;20.40;99.90;;;;;;4594417;19;19919;-33
2022/07/24 02:08:17;;;;;;;;;;;20.40;99.90;;;;;;4595241;19;19953;-32
2022/07/24 02:09:47;;;;;;;;;;;20.30;99.90;;;;;;4596055;19;19918;-32
2022/07/24 02:11:19;;;;;;;;;;;20.40;99.90;;;;;;4595023;19;20368;-33
2022/07/24 02:12:50;;;;;;;;;;;20.30;99.90;;;;;;4595837;19;20005;-33
2022/07/24 02:14:21;;;;;;;;;;;20.40;99.90;;;;;;4594960;19;19927;-32
2022/07/24 02:15:52;;;;;;;;;;;20.40;99.90;;;;;;4593624;19;19918;-33
2022/07/24 02:17:23;;;;;;;;;;;20.40;99.90;;;;;;4595659;19;20229;-32
2022/07/24 02:18:54;;;;;;;;;;;20.40;99.90;;;;;;4593156;19;20328;-34
2022/07/24 02:20:25;;;;;;;;;;;20.40;99.90;;;;;;4595177;19;19974;-33
2022/07/24 02:21:56;;;;;;;;;;;20.40;99.90;;;;;;4594210;19;19915;-33
2022/07/24 02:23:27;;;;;;;;;;;20.40;99.90;;;;;;4595396;19;19951;-33
2022/07/24 02:24:58;;;;;;;;;;;20.40;99.90;;;;;;4594280;19;20266;-33
2022/07/24 02:26:29;;;;;;;;;;;20.30;99.90;;;;;;4593867;19;19936;-33
2022/07/24 02:28:00;;;;;;;;;;;20.40;99.90;;;;;;4595614;19;19914;-32
2022/07/24 02:29:31;;;;;;;;;;;20.30;99.90;;;;;;4593539;19;19914;-34
2022/07/24 02:31:02;;;;;;;;;;;20.40;99.90;;;;;;4593195;19;19938;-33
2022/07/24 02:32:33;;;;;;;;;;;20.40;99.90;;;;;;4594582;19;19915;-33
2022/07/24 02:34:04;;;;;;;;;;;20.40;99.90;;;;;;4595073;19;19982;-33
2022/07/24 02:35:35;;;;;;;;;;;20.40;99.90;;;;;;4595202;19;20002;-33
2022/07/24 02:37:06;;;;;;;;;;;20.30;99.90;;;;;;4594734;19;20396;-33
2022/07/24 02:38:37;;;;;;;;;;;20.30;99.90;;;;;;4591930;19;19961;-33
2022/07/24 02:40:09;;;;;;;;;;;20.30;99.90;;;;;;4595054;19;19918;-34
2022/07/24 02:41:40;;;;;;;;;;;20.30;99.90;;;;;;4592859;19;20329;-32
2022/07/24 02:43:11;;;;;;;;;;;20.30;99.90;;;;;;4592789;19;20022;-32
2022/07/24 02:44:42;;;;;;;;;;;20.40;99.90;;;;;;4594521;19;19930;-33
2022/07/24 02:46:13;;;;;;;;;;;20.30;99.90;;;;;;4594441;19;19931;-33
2022/07/24 02:47:47;;;;;;;;;;;20.30;99.90;;;;;;4595070;19;19923;-33
2022/07/24 02:49:18;;;;;;;;;;;20.40;99.90;;;;;;4594671;19;19918;-33
2022/07/24 02:50:49;;;;;;;;;;;20.30;99.90;;;;;;4595164;19;20328;-33
2022/07/24 02:52:20;;;;;;;;;;;20.30;99.90;;;;;;4593646;19;19926;-32
2022/07/24 02:53:51;;;;;;;;;;;20.30;99.90;;;;;;4594774;19;20259;-34
2022/07/24 02:55:22;;;;;;;;;;;20.30;99.90;;;;;;4594359;19;19943;-33
2022/07/24 02:56:55;;;;;;;;;;;20.30;99.90;;;;;;4594710;19;19914;-34
2022/07/24 02:58:26;;;;;;;;;;;20.30;99.90;;;;;;4593356;19;19941;-33
2022/07/24 02:59:57;;;;;;;;;;;20.30;99.90;;;;;;4594384;19;19918;-33
2022/07/24 03:01:28;;;;;;;;;;;20.30;99.90;;;;;;4594801;19;19978;-32
2022/07/24 03:02:59;;;;;;;;;;;20.30;99.90;;;;;;4593536;19;20355;-32
2022/07/24 03:04:30;;;;;;;;;;;20.30;99.90;;;;;;4594093;19;19992;-33
2022/07/24 03:06:01;;;;;;;;;;;20.30;99.90;;;;;;4592944;19;19922;-34
2022/07/24 03:07:32;;;;;;;;;;;20.30;99.90;;;;;;4594184;19;19914;-32
2022/07/24 03:09:03;;;;;;;;;;;20.30;99.90;;;;;;4592220;19;19941;-33
2022/07/24 03:10:34;;;;;;;;;;;20.30;99.90;;;;;;4592628;19;20255;-32
2022/07/24 03:12:05;;;;;;;;;;;20.30;99.90;;;;;;4594768;19;19926;-32
2022/07/24 03:13:37;;;;;;;;;;;20.30;99.90;;;;;;4593849;19;19939;-33
2022/07/24 03:15:08;;;;;;;;;;;20.40;99.90;;;;;;4594435;19;20252;-34
2022/07/24 03:16:39;;;;;;;;;;;20.30;99.90;;;;;;4594187;19;19931;-33
2022/07/24 03:18:10;;;;;;;;;;;20.30;99.90;;;;;;4591612;19;19919;-33
2022/07/24 03:19:42;;;;;;;;;;;20.40;99.90;;;;;;4593147;19;19919;-33
2022/07/24 03:21:13;;;;;;;;;;;20.30;99.90;;;;;;4592251;19;20486;-33
2022/07/24 03:22:44;;;;;;;;;;;20.30;99.90;;;;;;4594948;19;20365;-33
2022/07/24 03:24:15;;;;;;;;;;;20.30;99.90;;;;;;4592877;19;20328;-35
2022/07/24 03:25:46;;;;;;;;;;;20.30;99.90;;;;;;4594294;19;20332;-34
2022/07/24 03:27:17;;;;;;;;;;;20.30;99.90;;;;;;4594322;19;19933;-33
2022/07/24 03:28:48;;;;;;;;;;;20.30;99.90;;;;;;4594334;19;19911;-33
2022/07/24 03:30:19;;;;;;;;;;;20.40;99.90;;;;;;4594311;19;19933;-33
2022/07/24 03:31:50;;;;;;;;;;;20.30;99.90;;;;;;4593386;19;20305;-34
2022/07/24 03:33:21;;;;;;;;;;;20.30;99.90;;;;;;4592822;19;19944;-34
2022/07/24 03:34:52;;;;;;;;;;;20.30;99.90;;;;;;4593127;19;19914;-33
2022/07/24 03:36:23;;;;;;;;;;;20.40;99.90;;;;;;4592378;19;19926;-33
2022/07/24 03:37:54;;;;;;;;;;;20.30;99.90;;;;;;4593582;19;19918;-33
2022/07/24 03:39:25;;;;;;;;;;;20.30;99.90;;;;;;4592211;19;19929;-33
2022/07/24 03:40:56;;;;;;;;;;;20.30;99.90;;;;;;4594441;19;20340;-33
2022/07/24 03:42:27;;;;;;;;;;;20.30;99.90;;;;;;4592665;19;19922;-32
2022/07/24 03:43:58;;;;;;;;;;;20.30;99.90;;;;;;4593601;19;20232;-33
2022/07/24 03:45:29;;;;;;;;;;;20.30;99.90;;;;;;4594184;19;19970;-33
2022/07/24 03:47:00;;;;;;;;;;;20.30;99.90;;;;;;4591079;19;19927;-34
2022/07/24 03:48:31;;;;;;;;;;;20.30;99.90;;;;;;4593157;19;19941;-33
2022/07/24 03:50:03;;;;;;;;;;;20.30;99.90;;;;;;4593595;19;19918;-33
2022/07/24 03:51:34;;;;;;;;;;;20.30;99.90;;;;;;4593623;19;19915;-32
2022/07/24 03:53:05;;;;;;;;;;;20.30;99.90;;;;;;4592795;19;20266;-34
2022/07/24 03:54:36;;;;;;;;;;;20.30;99.90;;;;;;4592120;19;19925;-33
2022/07/24 03:56:08;;;;;;;;;;;20.30;99.90;;;;;;4594250;19;19918;-34
2022/07/24 03:57:39;;;;;;;;;;;20.30;99.90;;;;;;4591778;19;19921;-33
2022/07/24 03:59:10;;;;;;;;;;;20.30;99.90;;;;;;4592290;19;19922;-33
2022/07/24 04:00:41;;;;;;;;;;;20.30;99.90;;;;;;4592915;19;19945;-33
2022/07/24 04:02:12;;;;;;;;;;;20.30;99.90;;;;;;4593556;19;20332;-32
2022/07/24 04:03:43;;;;;;;;;;;20.30;99.90;;;;;;4592548;19;19923;-33
2022/07/24 04:05:14;;;;;;;;;;;20.30;99.90;;;;;;4591804;19;19938;-33
2022/07/24 04:06:45;;;;;;;;;;;20.30;99.90;;;;;;4594145;19;20244;-34
2022/07/24 04:08:16;;;;;;;;;;;20.30;99.90;;;;;;4592515;19;19927;-34
2022/07/24 04:09:47;;;;;;;;;;;20.30;99.90;;;;;;4593489;19;19923;-33
2022/07/24 04:11:18;;;;;;;;;;;20.30;99.90;;;;;;4591778;19;19918;-33
2022/07/24 04:12:49;;;;;;;;;;;20.30;99.90;;;;;;4593124;19;19947;-32
2022/07/24 04:14:20;;;;;;;;;;;20.30;99.90;;;;;;4592157;19;20409;-33
2022/07/24 04:15:51;;;;;;;;;;;20.30;99.90;;;;;;4591068;19;19918;-33
2022/07/24 04:17:22;;;;;;;;;;;20.30;99.90;;;;;;4593342;19;20279;-33
2022/07/24 04:18:53;;;;;;;;;;;20.30;99.90;;;;;;4591202;19;19922;-34
2022/07/24 04:20:24;;;;;;;;;;;20.30;99.90;;;;;;4592192;19;19945;-33
2022/07/24 04:21:55;;;;;;;;;;;20.30;99.90;;;;;;4591070;19;20265;-35
2022/07/24 04:23:26;;;;;;;;;;;20.30;99.90;;;;;;4592130;19;19919;-34
2022/07/24 04:24:57;;;;;;;;;;;20.30;99.90;;;;;;4591407;19;19933;-33
2022/07/24 04:26:28;;;;;;;;;;;20.30;99.90;;;;;;4591614;19;19939;-33
2022/07/24 04:27:59;;;;;;;;;;;20.30;99.90;;;;;;4593020;19;19919;-32
2022/07/24 04:29:30;;;;;;;;;;;20.30;99.90;;;;;;4592346;19;19919;-33
2022/07/24 04:31:01;;;;;;;;;;;20.30;99.90;;;;;;4590670;19;19933;-32
2022/07/24 04:32:32;;;;;;;;;;;20.30;99.90;;;;;;4591118;19;20364;-34
2022/07/24 04:34:03;;;;;;;;;;;20.30;99.90;;;;;;4592273;19;19929;-32
2022/07/24 04:35:34;;;;;;;;;;;20.00;99.90;;;;;;4591828;19;20446;-34
2022/07/24 04:37:05;;;;;;;;;;;19.80;99.90;;;;;;4591610;19;19918;-33
2022/07/24 04:38:36;;;;;;;;;;;19.70;99.90;;;;;;4590677;19;19974;-33
2022/07/24 04:40:07;;;;;;;;;;;19.60;99.90;;;;;;4593038;19;20013;-32
2022/07/24 04:41:38;;;;;;;;;;;19.60;99.90;;;;;;4591532;19;19939;-34
2022/07/24 04:43:09;;;;;;;;;;;19.60;99.90;;;;;;4590674;19;19914;-32
2022/07/24 04:44:40;;;;;;;;;;;19.50;99.90;;;;;;4590727;19;19978;-32
2022/07/24 04:46:11;;;;;;;;;;;19.60;99.90;;;;;;4591614;19;19922;-32
2022/07/24 04:47:42;;;;;;;;;;;19.80;99.90;;;;;;4590606;19;19988;-32
2022/07/24 04:49:13;;;;;;;;;;;20.00;99.90;;;;;;4591847;19;19925;-32
2022/07/24 04:50:44;;;;;;;;;;;20.10;99.90;;;;;;4592732;19;20314;-33
2022/07/24 04:52:15;;;;;;;;;;;20.20;99.90;;;;;;4591340;19;19915;-33
2022/07/24 04:53:46;;;;;;;;;;;20.40;99.90;;;;;;4591644;19;19925;-32
2022/07/24 04:55:17;;;;;;;;;;;20.60;99.90;;;;;;4591512;19;19992;-33
2022/07/24 04:56:48;;;;;;;;;;;20.90;99.90;;;;;;4592903;19;19923;-32
2022/07/24 04:58:19;;;;;;;;;;;21.00;99.90;;;;;;4590448;19;19914;-33
2022/07/24 04:59:50;;;;;;;;;;;21.20;99.90;;;;;;4591923;19;19914;-32
2022/07/24 05:01:21;;;;;;;;;;;21.30;99.90;;;;;;4592419;19;19925;-33
2022/07/24 05:02:52;;;;;;;;;;;21.50;99.90;;;;;;4590468;19;20281;-32
2022/07/24 05:04:23;;;;;;;;;;;21.60;99.90;;;;;;4590018;19;19925;-33
2022/07/24 05:05:54;;;;;;;;;;;21.70;99.90;;;;;;4592492;19;19914;-32
2022/07/24 05:07:25;;;;;;;;;;;21.80;99.90;;;;;;4591175;19;19933;-32
2022/07/24 05:08:56;;;;;;;;;;;21.90;99.90;;;;;;4591897;19;19970;-32
2022/07/24 05:10:27;;;;;;;;;;;22.00;99.90;;;;;;4591725;19;19919;-34
2022/07/24 05:11:59;;;;;;;;;;;22.10;99.90;;;;;;4592226;19;20263;-32
2022/07/24 05:13:29;;;;;;;;;;;22.20;99.90;;;;;;4591493;19;19931;-32
2022/07/24 05:15:01;;;;;;;;;;;22.20;99.90;;;;;;4590212;19;19926;-33
2022/07/24 05:16:32;;;;;;;;;;;22.30;99.90;;;;;;4592390;19;19906;-34
2022/07/24 05:18:03;;;;;;;;;;;22.40;99.90;;;;;;4591760;19;19922;-34
2022/07/24 05:19:34;;;;;;;;;;;22.40;99.90;;;;;;4591108;19;19918;-34
2022/07/24 05:21:05;;;;;;;;;;;22.40;99.90;;;;;;4591429;19;19918;-32
2022/07/24 05:22:36;;;;;;;;;;;22.40;99.90;;;;;;4592047;19;19911;-34
2022/07/24 05:24:07;;;;;;;;;;;22.40;99.90;;;;;;4591195;19;19932;-33
2022/07/24 05:25:38;;;;;;;;;;;22.50;99.90;;;;;;4589952;19;20324;-32
2022/07/24 05:27:09;;;;;;;;;;;22.50;99.90;;;;;;4591476;19;19930;-34
2022/07/24 05:28:40;;;;;;;;;;;22.50;99.90;;;;;;4591137;19;19915;-32
2022/07/24 05:30:11;;;;;;;;;;;22.50;99.90;;;;;;4588855;19;19941;-33
2022/07/24 05:31:42;;;;;;;;;;;22.50;99.90;;;;;;4591738;19;19915;-34
2022/07/24 05:33:13;;;;;;;;;;;22.60;99.90;;;;;;4590911;19;19960;-35
2022/07/24 05:34:44;;;;;;;;;;;22.60;99.90;;;;;;4591615;19;19918;-35
2022/07/24 05:36:15;;;;;;;;;;;22.70;99.90;;;;;;4591075;19;19934;-33
2022/07/24 05:37:46;;;;;;;;;;;22.70;99.90;;;;;;4588923;19;19926;-33
2022/07/24 05:39:17;;;;;;;;;;;22.80;99.90;;;;;;4590229;19;19949;-33
2022/07/24 05:40:48;;;;;;;;;;;22.80;99.90;;;;;;4588871;19;19922;-33
2022/07/24 05:42:19;;;;;;;;;;;22.80;99.90;;;;;;4590251;19;19925;-33
2022/07/24 05:44:05;;;;;;;;;;;22.80;99.90;;;;;;4591043;19;19911;-33
2022/07/24 05:45:36;;;;;;;;;;;22.80;99.90;;;;;;4590837;19;19921;-32
2022/07/24 05:47:07;;;;;;;;;;;22.70;99.90;;;;;;4589296;19;19918;-33
2022/07/24 05:48:38;;;;;;;;;;;22.80;99.90;;;;;;4591118;19;19923;-35
2022/07/24 05:50:09;;;;;;;;;;;22.80;99.90;;;;;;4591187;19;19917;-33
2022/07/24 05:51:41;;;;;;;;;;;22.80;99.90;;;;;;4589262;19;19974;-33
2022/07/24 05:53:11;;;;;;;;;;;22.80;99.90;;;;;;4590200;19;19915;-33
2022/07/24 05:54:42;;;;;;;;;;;22.80;99.90;;;;;;4590698;19;19929;-31
2022/07/24 05:56:13;;;;;;;;;;;22.80;99.90;;;;;;4591331;19;19922;-35
2022/07/24 05:57:45;;;;;;;;;;;22.90;99.90;;;;;;4590594;19;20292;-35
2022/07/24 05:59:15;;;;;;;;;;;22.90;99.90;;;;;;4588476;19;19910;-34
2022/07/24 06:00:46;;;;;;;;;;;22.90;99.90;;;;;;4589600;19;19950;-33
2022/07/24 06:02:17;;;;;;;;;;;22.90;99.90;;;;;;4591401;19;20274;-33
2022/07/24 06:03:49;;;;;;;;;;;22.90;99.90;;;;;;4590462;19;20307;-32
2022/07/24 06:05:20;;;;;;;;;;;23.00;99.90;;;;;;4589895;19;19922;-33
2022/07/24 06:06:50;;;;;;;;;;;23.00;99.90;;;;;;4590404;19;19952;-33
2022/07/24 06:08:21;;;;;;;;;;;23.00;99.90;;;;;;4589716;19;19927;-32
2022/07/24 06:09:53;;;;;;;;;;;23.00;99.90;;;;;;4591238;19;19915;-28
2022/07/24 06:11:24;;;;;;;;;;;23.00;99.90;;;;;;4589535;19;19943;-32
2022/07/24 06:12:55;;;;;;;;;;;23.00;99.90;;;;;;4590700;19;19918;-32
2022/07/24 06:14:25;;;;;;;;;;;23.00;99.90;;;;;;4590418;19;19927;-33
2022/07/24 06:15:57;;;;;;;;;;;23.00;99.90;;;;;;4589370;19;19935;-33
2022/07/24 06:17:28;;;;;;;;;;;23.00;99.90;;;;;;4590983;19;20340;-34
2022/07/24 06:18:58;;;;;;;;;;;23.00;99.90;;;;;;4589020;19;19985;-33
2022/07/24 06:20:29;;;;;;;;;;;23.00;99.90;;;;;;4590731;19;20272;-35
2022/07/24 06:22:01;;;;;;;;;;;23.00;99.90;;;;;;4590769;19;19915;-34
2022/07/24 06:23:32;;;;;;;;;;;23.10;99.90;;;;;;4590951;19;19915;-34
2022/07/24 06:25:03;;;;;;;;;;;23.10;99.90;;;;;;4589916;19;19944;-34
2022/07/24 06:26:34;;;;;;;;;;;23.10;99.90;;;;;;4589642;19;20328;-33
2022/07/24 06:28:05;;;;;;;;;;;23.00;99.90;;;;;;4590926;19;19921;-35
2022/07/24 06:29:36;;;;;;;;;;;23.00;99.90;;;;;;4589184;19;19915;-34
2022/07/24 06:31:07;;;;;;;;;;;23.00;99.90;;;;;;4588443;19;19939;-33
2022/07/24 06:32:38;;;;;;;;;;;22.90;99.90;;;;;;4590202;19;19942;-32
2022/07/24 06:34:09;;;;;;;;;;;23.00;99.90;;;;;;4589671;19;19921;-33
2022/07/24 06:35:40;;;;;;;;;;;23.00;99.90;;;;;;4590734;19;19932;-32
2022/07/24 06:37:11;;;;;;;;;;;23.00;99.90;;;;;;4590342;19;19919;-32
2022/07/24 06:38:42;;;;;;;;;;;23.00;99.90;;;;;;4589250;19;19936;-33
2022/07/24 06:40:16;;;;;;;;;;;23.00;99.90;;;;;;4588946;19;19919;-34
2022/07/24 06:41:48;;;;;;;;;;;23.00;99.90;;;;;;4589101;19;19922;-31
2022/07/24 06:43:19;;;;;;;;;;;23.00;99.90;;;;;;4590659;19;19923;-33
2022/07/24 06:44:50;;;;;;;;;;;23.10;99.90;;;;;;4589280;19;19919;-32
2022/07/24 06:46:21;;;;;;;;;;;23.30;99.90;;;;;;4587928;19;19923;-34
2022/07/24 06:47:52;;;;;;;;;;;23.30;99.90;;;;;;4590268;19;19927;-32
2022/07/24 06:49:23;;;;;;;;;;;23.40;99.90;;;;;;4590165;19;19921;-32
2022/07/24 06:50:54;;;;;;;;;;;23.50;99.90;;;;;;4590614;19;19919;-33
2022/07/24 06:52:25;;;;;;;;;;;23.50;99.90;;;;;;4589492;19;19945;-32
2022/07/24 06:53:56;;;;;;;;;;;23.70;99.90;;;;;;4593817;19;19962;-32
2022/07/24 06:55:27;;;;;;;;;;;23.70;99.90;;;;;;4593929;19;19932;-33
2022/07/24 06:56:58;;;;;;;;;;;23.60;99.90;;;;;;4593834;19;19918;-35
2022/07/24 06:58:29;;;;;;;;;;;23.60;99.90;;;;;;4593290;19;20340;-33
2022/07/24 07:00:00;;;;;;;;;;;23.60;99.90;;;;;;4594374;19;19930;-32
2022/07/24 07:01:31;;;;;;;;;;;23.60;99.90;;;;;;4595399;19;19922;-32
2022/07/24 07:03:02;;;;;;;;;;;23.70;99.90;;;;;;4593606;19;19926;-33
2022/07/24 07:04:34;;;;;;;;;;;23.70;99.90;;;;;;4594719;19;19941;-33
2022/07/24 07:06:05;;;;;;;;;;;23.70;99.90;;;;;;4594033;19;19918;-33
2022/07/24 07:07:36;;;;;;;;;;;23.70;99.90;;;;;;4594392;19;19915;-35
2022/07/24 07:09:07;;;;;;;;;;;23.60;99.90;;;;;;4593728;19;19925;-32
2022/07/24 07:10:38;;;;;;;;;;;23.50;99.90;;;;;;4591277;19;19919;-33
2022/07/24 07:12:09;;;;;;;;;;;23.50;99.90;;;;;;4594212;19;19929;-33
2022/07/24 07:13:40;;;;;;;;;;;23.50;99.90;;;;;;4593336;19;19969;-33
2022/07/24 07:15:11;;;;;;;;;;;23.40;99.90;;;;;;4594872;19;20285;-33
2022/07/24 07:16:43;;;;;;;;;;;23.40;99.90;;;;;;4592634;19;19925;-34
2022/07/24 07:18:14;;;;;;;;;;;23.40;99.90;;;;;;4593781;19;19918;-32
2022/07/24 07:19:45;;;;;;;;;;;23.30;99.90;;;;;;4593124;19;19919;-35
2022/07/24 07:21:16;;;;;;;;;;;23.30;99.90;;;;;;4593200;19;20306;-31
2022/07/24 07:22:47;;;;;;;;;;;23.30;99.90;;;;;;4594389;19;19915;-34
2022/07/24 07:24:18;;;;;;;;;;;23.30;99.90;;;;;;4592997;19;19929;-34
2022/07/24 07:25:49;;;;;;;;;;;23.30;99.90;;;;;;4594378;19;19917;-35
2022/07/24 07:27:20;;;;;;;;;;;23.30;99.90;;;;;;4593956;19;19923;-33
2022/07/24 07:28:51;;;;;;;;;;;23.50;99.90;;;;;;4594838;19;19933;-32
2022/07/24 07:30:22;;;;;;;;;;;23.50;99.90;;;;;;4593319;19;19926;-34
2022/07/24 07:31:53;;;;;;;;;;;23.50;99.90;;;;;;4593705;19;19935;-34
2022/07/24 07:33:26;;;;;;;;;;;23.50;99.90;;;;;;4592983;19;19922;-32
2022/07/24 07:34:58;;;;;;;;;;;23.60;99.90;;;;;;4591900;19;20608;-33
2022/07/24 07:36:28;;;;;;;;;;;23.50;99.90;;;;;;4593033;19;20328;-32
2022/07/24 07:37:59;;;;;;;;;;;23.50;99.90;;;;;;4591220;19;19934;-33
2022/07/24 07:39:30;;;;;;;;;;;23.40;99.90;;;;;;4592149;19;19923;-33
2022/07/24 07:41:02;;;;;;;;;;;23.40;99.90;;;;;;4593686;19;19922;-33
2022/07/24 07:42:33;;;;;;;;;;;23.40;99.90;;;;;;4592732;19;19926;-31
2022/07/24 07:44:04;;;;;;;;;;;23.30;99.90;;;;;;4593319;19;19919;-33
2022/07/24 07:45:35;;;;;;;;;;;23.30;99.90;;;;;;4594569;19;19922;-33
2022/07/24 07:47:06;;;;;;;;;;;23.30;99.90;;;;;;4591692;19;19978;-33
2022/07/24 07:48:37;;;;;;;;;;;23.30;99.90;;;;;;4592123;19;19926;-33
2022/07/24 07:50:08;;;;;;;;;;;23.30;99.90;;;;;;4591857;19;19961;-33
2022/07/24 07:51:39;;;;;;;;;;;23.30;99.90;;;;;;4592000;19;20335;-35
2022/07/24 07:53:10;;;;;;;;;;;23.30;99.90;;;;;;4592757;19;19926;-33
2022/07/24 07:54:41;;;;;;;;;;;23.30;99.90;;;;;;4590310;19;19931;-33
2022/07/24 07:56:12;;;;;;;;;;;23.30;99.90;;;;;;4593722;19;19914;-33
2022/07/24 07:57:43;;;;;;;;;;;23.30;99.90;;;;;;4593493;19;19951;-33
2022/07/24 07:59:14;;;;;;;;;;;23.30;99.90;;;;;;4590997;19;19921;-34
2022/07/24 08:00:45;;;;;;;;;;;23.30;99.90;;;;;;4592358;19;19957;-33
2022/07/24 08:02:16;;;;;;;;;;;23.30;99.90;;;;;;4594239;19;19931;-33
2022/07/24 08:03:47;;;;;;;;;;;23.30;99.90;;;;;;4590560;19;19919;-32
2022/07/24 08:05:18;;;;;;;;;;;23.30;99.90;;;;;;4593070;19;19922;-35
2022/07/24 08:06:49;;;;;;;;;;;23.30;99.90;;;;;;4592370;19;19919;-33
2022/07/24 08:08:20;;;;;;;;;;;23.30;99.90;;;;;;4592086;19;20276;-34
2022/07/24 08:09:51;;;;;;;;;;;23.30;99.90;;;;;;4592709;19;19915;-33
2022/07/24 08:11:22;;;;;;;;;;;23.30;99.90;;;;;;4592695;19;19922;-35
2022/07/24 08:12:53;;;;;;;;;;;23.30;99.90;;;;;;4593143;19;19923;-33
2022/07/24 08:14:24;;;;;;;;;;;23.20;99.90;;;;;;4593463;19;19933;-33
2022/07/24 08:15:56;;;;;;;;;;;23.30;99.90;;;;;;4591289;19;19929;-33
2022/07/24 08:17:27;;;;;;;;;;;23.30;99.90;;;;;;4591562;19;20283;-31
2022/07/24 08:18:58;;;;;;;;;;;23.30;99.90;;;;;;4590964;19;19921;-33
2022/07/24 08:20:29;;;;;;;;;;;23.30;99.90;;;;;;4593258;19;19922;-33
2022/07/24 08:22:00;;;;;;;;;;;23.30;99.90;;;;;;4592340;19;19933;-32
2022/07/24 08:23:32;;;;;;;;;;;23.30;99.90;;;;;;4591552;19;20460;-33
2022/07/24 08:25:03;;;;;;;;;;;23.30;99.90;;;;;;4593176;19;19914;-34
2022/07/24 08:26:34;;;;;;;;;;;23.40;99.90;;;;;;4592297;19;19922;-33
2022/07/24 08:28:04;;;;;;;;;;;23.40;99.90;;;;;;4592964;19;19926;-33
2022/07/24 08:29:36;;;;;;;;;;;23.40;99.90;;;;;;4592612;19;19914;-33
2022/07/24 08:31:07;;;;;;;;;;;23.40;99.90;;;;;;4591964;19;20244;-32
2022/07/24 08:32:37;;;;;;;;;;;23.40;99.90;;;;;;4592085;19;19911;-33
2022/07/24 08:34:08;;;;;;;;;;;23.40;99.90;;;;;;4591512;19;19962;-33
2022/07/24 08:35:40;;;;;;;;;;;23.40;99.90;;;;;;4592386;19;19922;-33
2022/07/24 08:37:11;;;;;;;;;;;23.40;99.90;;;;;;4590433;19;19915;-34
2022/07/24 08:38:42;;;;;;;;;;;23.40;99.90;;;;;;4591748;19;19918;-33
2022/07/24 08:40:13;;;;;;;;;;;23.40;99.90;;;;;;4592364;19;19919;-34
2022/07/24 08:41:44;;;;;;;;;;;23.40;99.90;;;;;;4593170;19;19915;-33
2022/07/24 08:43:15;;;;;;;;;;;23.30;99.90;;;;;;4591696;19;19926;-33
2022/07/24 08:44:46;;;;;;;;;;;23.40;99.90;;;;;;4592215;19;19932;-33
2022/07/24 08:46:35;;;;;;;;;;;23.30;99.90;;;;;;4591823;19;20303;-34
2022/07/24 08:48:11;;;;;;;;;;;23.30;99.90;;;;;;4591699;19;19922;-31
2022/07/24 08:49:43;;;;;;;;;;;23.30;99.90;;;;;;4592612;19;19925;-31